Time;durP1;ratioP1;P1;durP2;ratioP2;P2;SDS_P1;SDS_P2;PMS_P1;PMS_P2;Temp;Humidity;BMP_temperature;BMP_pressure;BME280_temperature;BME280_humidity;BME280_pressure;Samples;Min_cycle;Max_cycle;Signal;HPM_P1;HPM_P2
2023/06/17 00:00:42;;;;;;;23.92;14.90;;;;;;;28.54;nan;101069.66;5046366;28;20057;-62
2023/06/17 00:03:08;;;;;;;25.95;13.52;;;;;;;28.91;nan;101062.59;5054227;28;20438;-62
2023/06/17 00:05:35;;;;;;;20.35;13.82;;;;;;;29.04;nan;101068.25;5038640;28;20572;-62
2023/06/17 00:08:02;;;;;;;19.13;13.38;;;;;;;29.02;nan;101064.06;5048334;28;20080;-62
2023/06/17 00:10:28;;;;;;;22.38;14.35;;;;;;;28.74;nan;101070.91;5064668;28;20067;-62
2023/06/17 00:12:55;;;;;;;20.13;14.75;;;;;;;28.83;nan;101059.94;5043138;28;20385;-62
2023/06/17 00:15:22;;;;;;;21.45;15.68;;;;;;;28.92;nan;101058.88;5033733;28;20064;-62
2023/06/17 00:17:50;;;;;;;23.10;14.30;;;;;;;28.74;nan;101057.31;5048678;28;20053;-62
2023/06/17 00:20:16;;;;;;;19.98;14.10;;;;;;;28.70;nan;101061.41;5052826;28;20461;-62
2023/06/17 00:22:44;;;;;;;22.05;13.55;;;;;;;28.67;nan;101050.91;5053574;28;20061;-62
2023/06/17 00:25:12;;;;;;;18.65;13.65;;;;;;;28.37;nan;101056.16;5053215;28;20463;-62
2023/06/17 00:27:39;;;;;;;21.05;13.98;;;;;;;26.37;nan;101052.28;5060815;28;20483;-62
2023/06/17 00:30:07;;;;;;;21.85;15.48;;;;;;;27.68;nan;101045.13;5059398;28;20052;-62
2023/06/17 00:32:34;;;;;;;22.42;14.57;;;;;;;28.07;nan;101054.31;5034851;28;20469;-62
2023/06/17 00:35:02;;;;;;;23.88;16.98;;;;;;;28.02;nan;101044.84;5047940;28;20106;-62
2023/06/17 00:37:29;;;;;;;22.23;14.95;;;;;;;27.83;nan;101048.78;5047126;28;20057;-62
2023/06/17 00:39:56;;;;;;;30.75;15.23;;;;;;;27.91;nan;101050.63;5039323;28;20124;-62
2023/06/17 00:42:23;;;;;;;19.98;14.52;;;;;;;27.50;nan;101047.22;5051044;28;20055;-62
2023/06/17 00:44:50;;;;;;;21.15;15.32;;;;;;;26.73;nan;101046.59;5050482;28;20055;-62
2023/06/17 00:47:16;;;;;;;20.00;15.43;;;;;;;27.87;nan;101038.41;5051280;28;20496;-62
2023/06/17 00:49:45;;;;;;;24.08;15.63;;;;;;;26.87;nan;101047.78;5033808;28;20103;-62
2023/06/17 00:52:14;;;;;;;23.38;14.77;;;;;;;27.03;nan;101041.50;5039662;28;20061;-62
2023/06/17 00:55:00;;;;;;;19.35;14.00;;;;;;;27.34;nan;101039.97;5051586;28;20052;-62
2023/06/17 00:57:28;;;;;;;23.33;15.40;;;;;;;27.98;nan;101038.03;5073398;28;20049;-62
2023/06/17 00:59:55;;;;;;;21.38;15.15;;;;;;;28.13;nan;101042.72;5064883;28;20091;-62
2023/06/17 01:02:25;;;;;;;25.73;15.13;;;;;;;27.98;nan;101046.19;5053886;28;20049;-62
2023/06/17 01:04:53;;;;;;;27.63;16.27;;;;;;;27.80;nan;101042.88;5041731;28;20053;-62
2023/06/17 01:07:52;;;;;;;23.67;16.10;;;;;;;27.46;nan;101046.72;5032936;28;20049;-62
2023/06/17 01:10:42;;;;;;;35.00;19.13;;;;;;;27.60;nan;101039.72;5033112;28;20053;-62
2023/06/17 01:13:11;;;;;;;28.55;16.70;;;;;;;28.01;nan;101050.44;5058974;28;20055;-62
2023/06/17 01:15:38;;;;;;;23.85;15.05;;;;;;;27.65;nan;101045.47;5072625;28;20059;-62
2023/06/17 01:18:07;;;;;;;21.40;15.35;;;;;;;27.62;nan;101035.78;5069742;28;20052;-62
2023/06/17 01:20:35;;;;;;;25.17;16.05;;;;;;;27.95;nan;101041.13;5066351;28;20045;-62
2023/06/17 01:23:05;;;;;;;23.45;16.10;;;;;;;27.92;nan;101038.75;5069308;28;20065;-62
2023/06/17 01:25:33;;;;;;;23.85;15.18;;;;;;;28.19;nan;101042.84;5072368;28;20060;-62
2023/06/17 01:28:10;;;;;;;24.05;16.00;;;;;;;28.03;nan;101042.94;5072658;28;20052;-62
2023/06/17 01:30:36;;;;;;;21.60;14.95;;;;;;;27.98;nan;101042.66;5070534;28;20060;-63
2023/06/17 01:33:03;;;;;;;22.88;14.88;;;;;;;27.35;nan;101039.78;5060381;28;20118;-62
2023/06/17 01:35:37;;;;;;;21.83;14.25;;;;;;;27.59;nan;101035.31;5057964;28;20048;-62
2023/06/17 01:38:21;;;;;;;20.60;13.43;;;;;;;27.81;nan;101031.00;5069092;28;20091;-62
2023/06/17 01:40:54;;;;;;;20.98;14.05;;;;;;;27.44;nan;101044.16;5051090;28;20454;-62
2023/06/17 01:43:24;;;;;;;21.05;15.35;;;;;;;27.93;nan;101037.75;5032667;28;20540;-62
2023/06/17 01:45:52;;;;;;;20.52;15.45;;;;;;;28.00;nan;101040.59;5033589;28;20444;-62
2023/06/17 01:48:19;;;;;;;23.75;14.43;;;;;;;26.74;nan;101037.47;5053164;28;20060;-62
2023/06/17 01:50:46;;;;;;;21.70;14.65;;;;;;;27.31;nan;101048.44;5056189;28;20053;-62
2023/06/17 01:53:12;;;;;;;22.70;14.80;;;;;;;26.69;nan;101044.41;5047643;28;20045;-62
2023/06/17 01:55:39;;;;;;;26.00;17.42;;;;;;;25.59;nan;101036.25;5046081;28;20049;-62
2023/06/17 01:58:05;;;;;;;26.10;17.05;;;;;;;27.10;nan;101042.53;5050309;28;20049;-62
2023/06/17 02:00:32;;;;;;;27.95;18.25;;;;;;;26.85;nan;101047.09;5043921;28;20131;-62
2023/06/17 02:02:59;;;;;;;28.17;18.23;;;;;;;27.80;nan;101040.97;5054344;28;20114;-62
2023/06/17 02:05:25;;;;;;;27.52;18.98;;;;;;;27.80;nan;101026.56;5048505;28;20053;-62
2023/06/17 02:07:55;;;;;;;25.25;17.48;;;;;;;27.98;nan;101024.47;5055271;28;20055;-62
2023/06/17 02:10:21;;;;;;;26.00;18.33;;;;;;;27.63;nan;101025.81;5038843;28;20049;-62
2023/06/17 02:12:48;;;;;;;29.38;18.35;;;;;;;27.87;nan;101022.09;5066624;28;20068;-62
2023/06/17 02:15:15;;;;;;;28.65;18.85;;;;;;;27.69;nan;101022.34;5057359;28;20068;-63
2023/06/17 02:17:42;;;;;;;25.83;18.20;;;;;;;27.89;nan;101030.09;5064582;28;20064;-62
2023/06/17 02:20:10;;;;;;;28.40;20.15;;;;;;;27.86;nan;101028.59;5075894;28;20129;-62
2023/06/17 02:22:37;;;;;;;28.75;19.48;;;;;;;27.69;nan;101029.66;5063939;28;20049;-63
2023/06/17 02:25:05;;;;;;;38.88;20.50;;;;;;;27.62;nan;101033.06;5057507;28;20476;-62
2023/06/17 02:27:31;;;;;;;27.60;19.27;;;;;;;27.62;nan;101026.81;5062992;28;20053;-63
2023/06/17 02:29:58;;;;;;;28.70;19.92;;;;;;;27.93;nan;101029.59;5050377;28;20049;-63
2023/06/17 02:32:24;;;;;;;33.10;22.05;;;;;;;27.91;nan;101022.63;5058324;28;20053;-62
2023/06/17 02:34:51;;;;;;;37.45;21.50;;;;;;;27.93;nan;101021.44;5061894;28;20052;-62
2023/06/17 02:37:18;;;;;;;30.50;21.00;;;;;;;28.06;nan;101020.03;5057263;28;20557;-63
2023/06/17 02:39:44;;;;;;;28.90;19.17;;;;;;;28.07;nan;101016.28;5060173;28;20048;-62
2023/06/17 02:42:11;;;;;;;31.20;20.52;;;;;;;27.79;nan;101011.28;5072680;28;20056;-62
2023/06/17 02:44:38;;;;;;;25.23;19.02;;;;;;;27.95;nan;101013.13;5061306;28;20060;-62
2023/06/17 02:47:06;;;;;;;31.30;21.17;;;;;;;28.02;nan;101019.53;5071830;28;20048;-62
2023/06/17 02:49:32;;;;;;;28.83;20.13;;;;;;;28.17;nan;101017.75;5066230;28;20354;-62
2023/06/17 02:51:59;;;;;;;30.75;19.85;;;;;;;28.34;nan;101010.31;5067738;28;20045;-62
2023/06/17 02:54:26;;;;;;;32.92;19.50;;;;;;;28.19;nan;101023.84;5061474;28;20056;-62
2023/06/17 02:56:53;;;;;;;27.38;19.98;;;;;;;28.23;nan;101016.16;5055032;28;20053;-63
2023/06/17 02:59:19;;;;;;;26.70;18.45;;;;;;;28.14;nan;101011.84;5054643;28;20480;-62
2023/06/17 03:01:46;;;;;;;26.20;19.02;;;;;;;27.96;nan;101015.66;5062168;28;20045;-62
2023/06/17 03:04:13;;;;;;;25.42;18.02;;;;;;;28.13;nan;101021.00;5058397;28;20061;-62
2023/06/17 03:06:41;;;;;;;40.47;20.42;;;;;;;28.05;nan;101018.31;5038730;28;20049;-62
2023/06/17 03:09:08;;;;;;;33.50;20.50;;;;;;;28.24;nan;101017.03;5037011;28;20457;-62
2023/06/17 03:11:36;;;;;;;28.45;18.45;;;;;;;28.27;nan;101011.25;5055167;28;20061;-62
2023/06/17 03:14:03;;;;;;;24.70;18.17;;;;;;;28.24;nan;101011.59;5070188;28;20056;-63
2023/06/17 03:16:33;;;;;;;30.45;18.65;;;;;;;28.17;nan;101006.03;5058607;28;20106;-62
2023/06/17 03:19:01;;;;;;;26.33;17.80;;;;;;;28.05;nan;101008.28;5041631;28;20052;-62
2023/06/17 03:21:32;;;;;;;28.92;18.77;;;;;;;27.97;nan;101017.34;5066171;28;20627;-62
2023/06/17 03:23:59;;;;;;;;;;;;;;;28.27;nan;101013.97;5055631;28;20053;-62
2023/06/17 03:26:25;;;;;;;28.55;16.98;;;;;;;28.44;nan;101011.97;5055335;28;19921;-63
2023/06/17 03:28:53;;;;;;;28.92;18.20;;;;;;;28.44;nan;101022.84;5058861;28;20079;-63
2023/06/17 03:31:21;;;;;;;27.58;18.90;;;;;;;28.51;nan;101019.22;5058976;28;20052;-62
2023/06/17 03:33:51;;;;;;;29.75;18.60;;;;;;;28.35;nan;101025.59;5057011;28;20049;-63
2023/06/17 03:36:19;;;;;;;24.13;17.33;;;;;;;28.52;nan;101022.78;5073862;28;20048;-63
2023/06/17 03:38:46;;;;;;;23.67;15.93;;;;;;;28.27;nan;101022.94;5065907;28;20101;-63
2023/06/17 03:41:12;;;;;;;23.13;17.35;;;;;;;28.37;nan;101018.13;5053381;28;20057;-63
2023/06/17 03:43:39;;;;;;;25.77;17.80;;;;;;;28.56;nan;101015.97;5062661;28;20056;-63
2023/06/17 03:46:06;;;;;;;24.63;17.02;;;;;;;28.40;nan;101021.53;5053966;28;20396;-63
2023/06/17 03:48:32;;;;;;;21.70;15.02;;;;;;;27.31;nan;101026.75;5065058;28;20045;-63
2023/06/17 03:51:00;;;;;;;26.55;16.00;;;;;;;27.71;nan;101023.06;5057390;28;20048;-63
2023/06/17 03:53:29;;;;;;;22.85;16.25;;;;;;;28.24;nan;101028.75;5051499;28;20049;-62
2023/06/17 03:55:56;;;;;;;24.75;16.42;;;;;;;28.34;nan;101029.34;5057460;28;20091;-63
2023/06/17 03:58:22;;;;;;;22.17;16.75;;;;;;;28.20;nan;101022.00;5069833;28;20110;-63
2023/06/17 04:00:49;;;;;;;23.00;15.82;;;;;;;28.22;nan;101027.25;5057199;28;20052;-63
2023/06/17 04:03:15;;;;;;;22.13;14.48;;;;;;;28.36;nan;101021.88;5073752;28;20064;-63
2023/06/17 04:05:42;;;;;;;22.27;14.25;;;;;;;28.18;nan;101026.72;5047415;28;20052;-63
2023/06/17 04:08:09;;;;;;;23.67;15.82;;;;;;;28.17;nan;101023.19;5049999;28;20053;-63
2023/06/17 04:10:36;;;;;;;19.45;14.65;;;;;;;27.99;nan;101031.59;5042320;28;20049;-63
2023/06/17 04:13:03;;;;;;;24.73;17.17;;;;;;;28.26;nan;101025.84;5046114;28;20061;-63
2023/06/17 04:15:29;;;;;;;21.67;14.70;;;;;;;28.25;nan;101038.59;5033856;28;20073;-63
2023/06/17 04:17:56;;;;;;;20.10;15.60;;;;;;;27.53;nan;101036.88;5036387;28;20397;-63
2023/06/17 04:20:25;;;;;;;17.85;14.35;;;;;;;28.17;nan;101033.22;5051410;28;20056;-63
2023/06/17 04:22:52;;;;;;;28.02;15.85;;;;;;;28.32;nan;101030.56;5049459;28;20091;-63
2023/06/17 04:25:20;;;;;;;23.15;14.25;;;;;;;27.08;nan;101032.84;5057278;28;20064;-63
2023/06/17 04:27:53;;;;;;;19.52;13.20;;;;;;;27.51;nan;101041.59;5072070;28;20048;-63
2023/06/17 04:30:20;;;;;;;18.25;14.55;;;;;;;28.34;nan;101033.94;5053917;28;20067;-63
2023/06/17 04:32:46;;;;;;;20.08;15.50;;;;;;;28.47;nan;101036.06;5052210;28;20053;-63
2023/06/17 04:35:13;;;;;;;21.10;14.32;;;;;;;27.86;nan;101039.44;5052491;28;20057;-63
2023/06/17 04:37:40;;;;;;;18.70;13.93;;;;;;;27.84;nan;101027.94;5052995;28;20053;-63
2023/06/17 04:40:11;;;;;;;20.63;13.63;;;;;;;28.09;nan;101027.81;5047132;28;20057;-63
2023/06/17 04:42:40;;;;;;;19.67;14.82;;;;;;;27.39;nan;101037.56;5046955;28;20049;-63
2023/06/17 04:45:10;;;;;;;16.70;14.30;;;;;;;27.92;nan;101036.03;5042417;28;20057;-63
2023/06/17 04:47:37;;;;;;;20.80;13.82;;;;;;;26.14;nan;101041.22;5049841;28;20053;-63
2023/06/17 04:50:04;;;;;;;18.77;15.55;;;;;;;28.32;nan;101036.84;5045461;28;20061;-64
2023/06/17 04:52:31;;;;;;;20.50;15.38;;;;;;;28.20;nan;101032.84;5051037;28;20053;-63
2023/06/17 04:54:58;;;;;;;19.13;15.50;;;;;;;28.22;nan;101038.94;5033600;28;20119;-64
2023/06/17 04:57:25;;;;;;;22.67;16.15;;;;;;;27.91;nan;101039.75;5041283;28;20065;-64
2023/06/17 04:59:51;;;;;;;22.90;15.48;;;;;;;27.76;nan;101036.94;5032584;28;20053;-64
2023/06/17 05:02:18;;;;;;;23.40;16.17;;;;;;;27.84;nan;101044.22;5044347;28;20049;-63
2023/06/17 05:04:45;;;;;;;20.48;16.00;;;;;;;28.00;nan;101046.88;5068957;28;20053;-64
2023/06/17 05:07:11;;;;;;;21.17;15.93;;;;;;;28.69;nan;101046.13;5035640;28;20045;-63
2023/06/17 05:09:38;;;;;;;24.05;15.38;;;;;;;28.77;nan;101049.81;5033056;28;20396;-64
2023/06/17 05:12:04;;;;;;;21.88;14.98;;;;;;;28.66;nan;101043.78;5032554;28;20057;-64
2023/06/17 05:14:31;;;;;;;20.20;15.23;;;;;;;28.81;nan;101043.81;5043971;28;20113;-64
2023/06/17 05:16:58;;;;;;;19.00;15.70;;;;;;;28.73;nan;101050.16;5049765;28;20049;-63
2023/06/17 05:19:24;;;;;;;24.70;14.68;;;;;;;28.70;nan;101038.81;5032510;28;20061;-63
2023/06/17 05:21:51;;;;;;;22.17;15.30;;;;;;;28.93;nan;101044.22;5039573;28;20061;-63
2023/06/17 05:24:17;;;;;;;20.88;14.85;;;;;;;28.09;nan;101044.13;5052383;28;20060;-63
2023/06/17 05:26:44;;;;;;;19.00;15.00;;;;;;;27.79;nan;101041.16;5054619;28;20056;-63
2023/06/17 05:29:11;;;;;;;18.55;14.80;;;;;;;28.00;nan;101040.59;5072411;28;20060;-64
2023/06/17 05:31:37;;;;;;;19.52;14.93;;;;;;;28.00;nan;101046.88;5053163;28;20446;-63
2023/06/17 05:34:04;;;;;;;16.60;13.60;;;;;;;27.78;nan;101047.63;5051147;28;20053;-63
2023/06/17 05:36:30;;;;;;;15.05;12.85;;;;;;;28.79;nan;101042.28;5036289;28;20084;-65
2023/06/17 05:38:57;;;;;;;21.95;14.05;;;;;;;28.50;nan;101043.88;5051598;28;20053;-64
2023/06/17 05:41:23;;;;;;;20.38;14.25;;;;;;;29.28;nan;101047.34;5045814;28;20469;-64
2023/06/17 05:43:50;;;;;;;19.60;14.18;;;;;;;29.03;nan;101050.25;5040658;28;20363;-64
2023/06/17 05:46:16;;;;;;;19.23;14.13;;;;;;;29.00;nan;101050.63;5036054;28;20127;-65
2023/06/17 05:48:43;;;;;;;17.85;13.43;;;;;;;26.98;nan;101053.88;5038263;28;20061;-64
2023/06/17 05:51:10;;;;;;;18.92;13.93;;;;;;;27.23;nan;101058.25;5040962;28;20049;-64
2023/06/17 05:53:36;;;;;;;21.35;14.30;;;;;;;27.24;nan;101059.13;5038081;28;20247;-64
2023/06/17 05:56:07;;;;;;;15.85;13.32;;;;;;;28.17;nan;101060.38;5068967;28;20053;-64
2023/06/17 05:58:34;;;;;;;17.05;13.48;;;;;;;28.70;nan;101066.84;5050364;28;20094;-64
2023/06/17 06:01:00;;;;;;;22.90;15.27;;;;;;;29.15;nan;101057.94;5035678;28;20114;-64
2023/06/17 06:03:27;;;;;;;17.25;12.80;;;;;;;29.43;nan;101061.78;5036005;28;20045;-64
2023/06/17 06:05:54;;;;;;;18.25;13.88;;;;;;;29.65;nan;101065.47;5036853;28;20397;-63
2023/06/17 06:08:20;;;;;;;24.30;14.32;;;;;;;29.31;nan;101063.28;5052395;28;20087;-63
2023/06/17 06:10:47;;;;;;;17.08;13.88;;;;;;;29.14;nan;101078.88;5047001;28;20045;-66
2023/06/17 06:13:13;;;;;;;19.85;14.15;;;;;;;29.71;nan;101074.75;5067566;28;20057;-64
2023/06/17 06:15:40;;;;;;;22.13;15.32;;;;;;;29.21;nan;101068.13;5055893;28;20049;-64
2023/06/17 06:18:07;;;;;;;18.20;14.05;;;;;;;29.95;nan;101075.53;5040630;28;20489;-63
2023/06/17 06:20:33;;;;;;;18.40;14.32;;;;;;;27.96;nan;101072.69;5043573;28;20114;-63
2023/06/17 06:23:00;;;;;;;21.33;14.38;;;;;;;29.06;nan;101070.81;5046799;28;20122;-64
2023/06/17 06:25:27;;;;;;;18.55;14.93;;;;;;;29.86;nan;101076.66;5055272;28;20053;-63
2023/06/17 06:27:54;;;;;;;17.55;14.50;;;;;;;29.96;nan;101077.19;5050233;28;20053;-63
2023/06/17 06:30:20;;;;;;;22.80;14.77;;;;;;;29.78;nan;101074.88;5035355;28;20057;-63
2023/06/17 06:32:47;;;;;;;21.33;15.18;;;;;;;30.27;nan;101079.66;5035602;28;20049;-63
2023/06/17 06:35:14;;;;;;;18.17;14.68;;;;;;;30.14;nan;101077.63;5035315;28;20060;-63
2023/06/17 06:37:40;;;;;;;18.88;15.02;;;;;;;30.38;nan;101081.09;5034823;28;20055;-64
2023/06/17 06:40:07;;;;;;;24.40;15.32;;;;;;;29.72;nan;101086.47;5037056;28;20065;-63
2023/06/17 06:42:34;;;;;;;20.25;15.38;;;;;;;29.42;nan;101075.59;5039840;28;20111;-63
2023/06/17 06:45:01;;;;;;;21.40;15.90;;;;;;;30.25;nan;101080.91;5035806;28;20053;-64
2023/06/17 06:47:28;;;;;;;24.75;17.17;;;;;;;30.25;nan;101080.91;5036437;28;20049;-63
2023/06/17 06:49:54;;;;;;;18.25;14.93;;;;;;;30.47;nan;101087.25;5035448;28;20049;-64
2023/06/17 06:52:21;;;;;;;18.77;15.73;;;;;;;29.95;nan;101086.44;5043306;28;20076;-63
2023/06/17 06:54:47;;;;;;;22.67;15.73;;;;;;;29.69;nan;101090.44;5043050;28;20045;-64
2023/06/17 06:57:14;;;;;;;19.30;15.45;;;;;;;30.70;nan;101095.25;5041219;28;20052;-64
2023/06/17 06:59:41;;;;;;;18.50;15.05;;;;;;;31.00;nan;101096.00;5052245;28;20064;-64
2023/06/17 07:02:07;;;;;;;22.90;15.88;;;;;;;29.09;nan;101090.31;5047811;28;20048;-64
2023/06/17 07:04:34;;;;;;;18.15;15.15;;;;;;;30.13;nan;101095.03;5036832;28;20056;-64
2023/06/17 07:07:02;;;;;;;19.38;14.75;;;;;;;29.37;nan;101094.34;5046957;28;20049;-65
2023/06/17 07:09:29;;;;;;;18.02;14.70;;;;;;;28.70;nan;101091.31;5054802;28;20409;-64
2023/06/17 07:11:55;;;;;;;21.20;15.55;;;;;;;29.31;nan;101100.53;5054529;28;20361;-64
2023/06/17 07:14:22;;;;;;;22.67;15.10;;;;;;;29.09;nan;101092.19;5050188;28;20062;-65
2023/06/17 07:16:49;;;;;;;20.27;15.27;;;;;;;28.56;nan;101092.09;5066533;28;20410;-64
2023/06/17 07:19:15;;;;;;;19.65;15.57;;;;;;;30.16;nan;101089.19;5048424;28;20053;-64
2023/06/17 07:21:42;;;;;;;21.38;16.33;;;;;;;30.27;nan;101087.84;5063115;28;20052;-64
2023/06/17 07:24:08;;;;;;;17.92;15.07;;;;;;;29.22;nan;101088.88;5064922;28;20068;-64
2023/06/17 07:26:35;;;;;;;18.38;15.57;;;;;;;28.60;nan;101098.03;5058276;28;20056;-64
2023/06/17 07:29:02;;;;;;;19.80;15.80;;;;;;;28.84;nan;101088.84;5059863;28;20049;-64
2023/06/17 07:31:30;;;;;;;19.92;16.30;;;;;;;28.60;nan;101096.16;5069694;28;20055;-63
2023/06/17 07:33:57;;;;;;;20.77;15.68;;;;;;;30.61;nan;101100.00;5074078;28;20120;-65
2023/06/17 07:36:25;;;;;;;20.75;14.43;;;;;;;30.47;nan;101101.75;5066736;28;20055;-64
2023/06/17 07:38:52;;;;;;;20.00;15.27;;;;;;;30.12;nan;101093.34;5073111;28;20045;-64
2023/06/17 07:41:20;;;;;;;20.98;15.23;;;;;;;30.20;nan;101101.41;5060414;28;20056;-64
2023/06/17 07:43:46;;;;;;;20.95;15.05;;;;;;;30.31;nan;101101.97;5053972;28;20053;-64
2023/06/17 07:46:13;;;;;;;19.30;15.43;;;;;;;31.20;nan;101098.03;5056190;28;20056;-63
2023/06/17 07:48:40;;;;;;;18.17;13.52;;;;;;;30.16;nan;101094.66;5054175;28;20049;-64
2023/06/17 07:51:07;;;;;;;14.68;12.98;;;;;;;31.42;nan;101105.16;5056590;28;20045;-64
2023/06/17 07:53:33;;;;;;;15.65;12.90;;;;;;;32.18;nan;101092.56;5072511;28;20409;-64
2023/06/17 07:56:00;;;;;;;15.98;12.60;;;;;;;31.84;nan;101105.22;5073399;28;20052;-64
2023/06/17 07:58:26;;;;;;;16.25;13.75;;;;;;;30.98;nan;101097.22;5070993;28;20487;-64
2023/06/17 08:00:53;;;;;;;20.38;13.02;;;;;;;31.97;nan;101096.25;5048590;28;20049;-64
2023/06/17 08:03:20;;;;;;;16.88;12.75;;;;;;;32.34;nan;101097.66;5049054;28;20057;-64
2023/06/17 08:05:47;;;;;;;17.40;12.48;;;;;;;32.00;nan;101096.66;5044936;28;20137;-64
2023/06/17 08:08:14;;;;;;;15.18;13.10;;;;;;;32.07;nan;101090.41;5032857;28;20049;-64
2023/06/17 08:10:41;;;;;;;18.55;11.57;;;;;;;32.59;nan;101094.38;5050125;28;20049;-65
2023/06/17 08:13:07;;;;;;;14.73;11.38;;;;;;;31.77;nan;101093.41;5062648;28;20049;-64
2023/06/17 08:15:35;;;;;;;17.13;12.98;;;;;;;32.13;nan;101089.63;5060322;28;20048;-64
2023/06/17 08:18:01;;;;;;;14.80;10.25;;;;;;;32.81;nan;101088.72;5057537;28;20045;-63
2023/06/17 08:20:28;;;;;;;13.40;10.68;;;;;;;32.17;nan;101085.41;5061105;28;20052;-63
2023/06/17 08:22:55;;;;;;;17.77;10.80;;;;;;;32.57;nan;101085.53;5064289;28;20049;-63
2023/06/17 08:25:21;;;;;;;17.15;11.30;;;;;;;30.93;nan;101084.16;5063834;28;20060;-63
2023/06/17 08:27:50;;;;;;;22.40;12.48;;;;;;;31.87;nan;101080.22;5065395;28;20049;-63
2023/06/17 08:30:17;;;;;;;12.73;10.50;;;;;;;32.66;nan;101084.31;5058340;28;20048;-63
2023/06/17 08:32:44;;;;;;;15.15;10.15;;;;;;;32.65;nan;101081.78;5068970;28;20053;-63
2023/06/17 08:35:10;;;;;;;14.13;10.27;;;;;;;32.54;nan;101083.19;5053166;28;20041;-63
2023/06/17 08:37:38;;;;;;;15.07;10.77;;;;;;;29.60;nan;101083.38;5064034;28;20384;-64
2023/06/17 08:40:05;;;;;;;13.07;10.27;;;;;;;31.58;nan;101082.19;5054715;28;20053;-63
2023/06/17 08:42:32;;;;;;;14.57;11.02;;;;;;;29.76;nan;101082.34;5058944;28;20057;-63
2023/06/17 08:45:00;;;;;;;13.75;10.85;;;;;;;32.06;nan;101084.09;5046111;28;20053;-64
2023/06/17 08:47:27;;;;;;;14.88;11.02;;;;;;;32.05;nan;101082.41;5063475;28;20362;-63
2023/06/17 08:49:57;;;;;;;11.55;9.80;;;;;;;33.17;nan;101084.75;5053174;28;20053;-63
2023/06/17 08:52:26;;;;;;;14.93;10.60;;;;;;;30.52;nan;101087.50;5059318;28;20048;-63
2023/06/17 08:54:53;;;;;;;13.90;9.55;;;;;;;33.40;nan;101082.44;5048068;28;20067;-64
2023/06/17 08:57:19;;;;;;;16.42;9.77;;;;;;;32.61;nan;101097.72;5057989;28;20048;-64
2023/06/17 08:59:46;;;;;;;16.55;9.13;;;;;;;30.35;nan;101087.72;5053771;28;20092;-64
2023/06/17 09:02:14;;;;;;;14.60;9.45;;;;;;;30.56;nan;101086.94;5046293;28;20061;-63
2023/06/17 09:04:41;;;;;;;12.88;9.48;;;;;;;32.81;nan;101094.22;5050200;28;20048;-64
2023/06/17 09:07:09;;;;;;;10.93;7.88;;;;;;;33.05;nan;101095.50;5058965;28;20045;-64
2023/06/17 09:09:37;;;;;;;20.02;8.25;;;;;;;33.02;nan;101091.28;5059857;28;20052;-64
2023/06/17 09:12:05;;;;;;;10.85;8.93;;;;;;;33.41;nan;101091.47;5054362;28;20064;-63
2023/06/17 09:14:34;;;;;;;10.50;8.93;;;;;;;32.88;nan;101103.28;5074898;28;21284;-64
2023/06/17 09:17:02;;;;;;;15.15;9.38;;;;;;;34.07;nan;101095.09;5084124;28;20067;-63
2023/06/17 09:19:31;;;;;;;12.27;8.02;;;;;;;29.95;nan;101097.31;5061886;28;20056;-64
2023/06/17 09:22:06;;;;;;;10.10;8.38;;;;;;;31.26;nan;101095.38;5052123;28;20049;-64
2023/06/17 09:24:32;;;;;;;13.55;9.52;;;;;;;30.76;nan;101099.94;5051821;28;20396;-63
2023/06/17 09:27:00;;;;;;;13.43;7.53;;;;;;;31.81;nan;101097.41;5066164;28;20040;-63
2023/06/17 09:29:29;;;;;;;13.70;8.45;;;;;;;33.54;nan;101096.94;5079471;28;20483;-63
2023/06/17 09:31:56;;;;;;;10.13;7.95;;;;;;;33.40;nan;101107.09;5069710;28;20338;-64
2023/06/17 09:34:24;;;;;;;15.52;8.45;;;;;;;33.92;nan;101098.13;5055176;28;20049;-63
2023/06/17 09:37:00;;;;;;;11.00;8.23;;;;;;;31.64;nan;101092.28;5052328;28;20064;-64
2023/06/17 09:39:31;;;;;;;10.10;8.23;;;;;;;33.51;nan;101107.50;5054815;28;20158;-64
2023/06/17 09:42:12;;;;;;;13.75;8.77;;;;;;;33.05;nan;101093.59;5052888;28;20063;-64
2023/06/17 09:44:44;;;;;;;10.93;8.02;;;;;;;32.57;nan;101096.47;5070382;28;20087;-65
2023/06/17 09:47:11;;;;;;;12.80;8.55;;;;;;;34.38;nan;101097.94;5064491;28;20098;-67
2023/06/17 09:49:38;;;;;;;10.48;7.88;;;;;;;34.73;nan;101088.47;5050776;28;20482;-67
2023/06/17 09:52:08;;;;;;;11.25;8.48;;;;;;;35.05;nan;101096.63;5050554;28;20053;-67
2023/06/17 09:54:36;;;;;;;14.23;8.47;;;;;;;34.91;nan;101080.28;5050404;28;20115;-66
2023/06/17 09:57:07;;;;;;;11.85;7.80;;;;;;;34.64;nan;101087.00;5050583;28;20060;-65
2023/06/17 09:59:34;;;;;;;13.27;8.25;;;;;;;32.61;nan;101086.78;5064264;28;20232;-66
2023/06/17 10:02:00;;;;;;;9.52;7.70;;;;;;;31.04;nan;101090.97;5072273;28;20070;-65
2023/06/17 10:04:27;;;;;;;11.15;7.70;;;;;;;33.46;nan;101081.59;5074276;28;20052;-65
2023/06/17 10:06:54;;;;;;;11.65;7.50;;;;;;;34.61;nan;101084.69;5075353;28;20143;-64
2023/06/17 10:09:21;;;;;;;10.52;8.20;;;;;;;35.56;nan;101081.81;5089662;28;20071;-66
2023/06/17 10:11:50;;;;;;;8.32;7.15;;;;;;;33.61;nan;101072.25;5074420;28;20068;-65
2023/06/17 10:14:31;;;;;;;10.77;7.45;;;;;;;32.51;nan;101075.41;5064624;28;20045;-65
2023/06/17 10:16:59;;;;;;;10.02;7.53;;;;;;;34.07;nan;101074.03;5059502;28;20113;-65
2023/06/17 10:19:29;;;;;;;9.93;8.20;;;;;;;31.81;nan;101070.09;5059949;28;20049;-65
2023/06/17 10:21:57;;;;;;;13.43;8.52;;;;;;;31.43;nan;101067.75;5082228;28;20597;-65
2023/06/17 10:24:25;;;;;;;9.70;8.15;;;;;;;31.29;nan;101072.28;5064603;28;20044;-65
2023/06/17 10:26:53;;;;;;;9.80;7.65;;;;;;;34.36;nan;101069.91;5095853;28;20078;-65
2023/06/17 10:29:20;;;;;;;12.25;9.05;;;;;;;31.64;nan;101067.69;5070679;28;20056;-65
2023/06/17 10:31:46;;;;;;;11.48;8.80;;;;;;;33.75;nan;101064.88;5070152;28;20460;-65
2023/06/17 10:34:15;;;;;;;13.88;8.35;;;;;;;34.80;nan;101059.03;5076499;28;20044;-65
2023/06/17 10:36:47;;;;;;;9.50;7.88;;;;;;;33.10;nan;101058.22;5062813;28;20053;-65
2023/06/17 10:39:13;;;;;;;10.98;7.80;;;;;;;34.29;nan;101065.50;5068336;28;20075;-65
2023/06/17 10:41:40;;;;;;;10.13;7.43;;;;;;;33.93;nan;101059.53;5063521;28;20048;-66
2023/06/17 10:44:30;;;;;;;12.43;8.13;;;;;;;33.34;nan;101064.09;5068506;28;20064;-67
2023/06/17 10:46:57;;;;;;;9.88;8.85;;;;;;;32.58;nan;101065.34;5060696;28;20058;-66
2023/06/17 10:49:24;;;;;;;9.68;8.13;;;;;;;34.04;nan;101063.50;5074915;28;20053;-66
2023/06/17 10:51:55;;;;;;;11.80;8.07;;;;;;;35.01;nan;101062.47;5056677;28;20056;-66
2023/06/17 10:54:31;;;;;;;16.98;9.73;;;;;;;35.15;nan;101058.53;5077239;28;20052;-67
2023/06/17 10:57:02;;;;;;;9.80;7.30;;;;;;;35.34;nan;101058.59;5091114;28;20053;-66
2023/06/17 10:59:31;;;;;;;15.20;8.05;;;;;;;34.54;nan;101049.06;5067304;28;20045;-66
2023/06/17 11:02:03;;;;;;;10.05;6.85;;;;;;;35.76;nan;101053.28;5068432;28;20048;-66
2023/06/17 11:04:31;;;;;;;9.13;7.10;;;;;;;36.72;nan;101051.53;5061431;28;20063;-66
2023/06/17 11:07:00;;;;;;;10.20;7.32;;;;;;;36.76;nan;101048.31;5060748;28;20052;-66
2023/06/17 11:09:28;;;;;;;9.95;7.25;;;;;;;36.15;nan;101040.09;5075244;28;20040;-66
2023/06/17 11:11:55;;;;;;;8.60;7.03;;;;;;;36.88;nan;101036.25;5073259;28;20473;-66
2023/06/17 11:14:24;;;;;;;12.20;7.43;;;;;;;35.50;nan;101044.25;5073938;28;20052;-66
2023/06/17 11:16:51;;;;;;;11.43;7.50;;;;;;;34.51;nan;101042.16;5068418;28;20052;-66
2023/06/17 11:19:18;;;;;;;10.93;7.18;;;;;;;35.06;nan;101043.41;5087523;28;20062;-67
2023/06/17 11:21:44;;;;;;;8.73;7.47;;;;;;;36.31;nan;101031.19;5080839;28;20395;-66
2023/06/17 11:24:11;;;;;;;8.98;7.40;;;;;;;34.99;nan;101029.75;5074786;28;20053;-66
2023/06/17 11:26:38;;;;;;;9.50;6.72;;;;;;;35.01;nan;101032.25;5081206;28;20056;-67
2023/06/17 11:29:05;;;;;;;9.60;7.40;;;;;;;35.92;nan;101041.66;5075204;28;20113;-66